Briefing drone pour Chabeuil

Rechercher une autre localisation

Conditions de vol :


Nous sommes le : Dimanche 25 février 2024
Il est 09:32 UTC (10:32 LT)

Lever de soleil : 05:58 UTC (06:58 LT)
Coucher de soleil : 17:47 UTC (18:47 LT)

Météo

L'essentiel des conditions de vol

VIGILANCE MÉTÉO FRANCE - Drôme (26)
Pas de vigilances particulieres
CARTES DES FRONTS
METAR de LFLU
LFLU 250930Z AUTO 22010KT 190V250 9999 OVC036 07/02 Q1008

Date d'émission: 25/02/2024
Heure d'émission: 09:30 UTC
Vent: 220° (variable du 190° au 250°) pour 10 KT (19 km/h)
Visibilité horizontale: > 10 km
Plafond :
- Couvert à 3600ft (1097m)
Température: 7 °C
Point de rosée: 2 °C
Humidité: 70%
Pression (QNH): 1008 hPa
Prévision 24h pour Valence (6 km)
Vent : 218° pour 2 KT (7 km/h)
Temperature Maxi: 7 °C
Temperature Min: 7 °C
Humidité : 93%
Condition : Légère pluie


WEBCAM POUR CHABEUIL

Réglementation

Voler en sécurité

CARTES AERONAUTIQUE 1/500.000
CARTE AZBA (Reseau basse altitude)
CARTES VAC (LFLU)
SUP AIP




Chargement des AIP...
NOTAM (CHABEUIL + Terrain à proximité / FIR )




Chargement des NOTAMS...
CONTACT PREFECTURE 26
Drôme (26) : [email protected]


Avertissement : Les données mises à disposition sont indicatives. Oxygène Drone ne pourra être tenu responsable de dégâts causés aux biens et aux personnes.